createdAt,value
2023-03-21T00:01:05.381Z,100156.11
2023-03-21T00:03:34.612Z,100152.32
2023-03-21T00:06:11.963Z,100153.70
2023-03-21T00:08:40.757Z,100153.39
2023-03-21T00:11:10.902Z,100151.55
2023-03-21T00:13:42.546Z,100147.79
2023-03-21T00:16:20.764Z,100147.46
2023-03-21T00:18:53.585Z,100141.79
2023-03-21T00:24:16.660Z,100137.88
2023-03-21T00:34:22.682Z,100131.48
2023-03-21T00:37:01.794Z,100129.26
2023-03-21T00:39:29.745Z,100127.70
2023-03-21T00:41:57.778Z,100133.21
2023-03-21T00:44:25.892Z,100131.55
2023-03-21T00:47:06.588Z,100134.14
2023-03-21T00:49:38.284Z,100136.57
2023-03-21T00:52:18.355Z,100137.10
2023-03-21T00:54:52.423Z,100134.75
2023-03-21T00:57:29.298Z,100133.08
2023-03-21T01:00:08.027Z,100134.41
2023-03-21T01:02:38.145Z,100131.47
2023-03-21T01:05:06.922Z,100132.11
2023-03-21T01:07:34.787Z,100132.95
2023-03-21T01:10:02.641Z,100132.91
2023-03-21T01:12:30.561Z,100133.45
2023-03-21T01:14:58.814Z,100133.62
2023-03-21T01:17:26.641Z,100135.30
2023-03-21T01:19:54.477Z,100133.91
2023-03-21T01:22:22.402Z,100136.31
2023-03-21T01:24:56.697Z,100132.95
2023-03-21T01:27:28.863Z,100127.48
2023-03-21T01:29:56.987Z,100127.15
2023-03-21T01:32:25.124Z,100126.64
2023-03-21T01:34:52.961Z,100126.17
2023-03-21T01:37:22.840Z,100125.52
2023-03-21T01:39:51.904Z,100123.00
2023-03-21T01:42:20.067Z,100122.02
2023-03-21T01:45:05.044Z,100119.99
2023-03-21T01:47:40.598Z,100116.98
2023-03-21T01:50:41.255Z,100117.39
2023-03-21T01:53:30.180Z,100117.23
2023-03-21T01:56:07.187Z,100109.31
2023-03-21T01:58:59.002Z,100105.90
2023-03-21T02:01:57.350Z,100105.59
2023-03-21T02:04:28.209Z,100104.94
2023-03-21T02:07:19.095Z,100104.38
2023-03-21T02:09:53.836Z,100104.64
2023-03-21T02:12:24.120Z,100106.41
2023-03-21T02:14:53.351Z,100102.69
2023-03-21T02:17:50.406Z,100105.83
2023-03-21T02:20:49.754Z,100100.73
2023-03-21T02:24:07.693Z,100103.05
2023-03-21T02:27:13.138Z,100102.77
2023-03-21T02:30:17.431Z,100105.27
2023-03-21T02:33:00.570Z,100107.08
2023-03-21T02:35:52.411Z,100105.10
2023-03-21T02:38:32.060Z,100100.23
2023-03-21T02:41:19.011Z,100098.95
2023-03-21T02:44:17.105Z,100100.59
2023-03-21T02:47:02.870Z,100103.02
2023-03-21T02:49:38.550Z,100106.61
2023-03-21T02:52:16.843Z,100101.55
2023-03-21T02:54:51.709Z,100102.00
2023-03-21T02:57:25.328Z,100095.63
2023-03-21T03:00:02.312Z,100101.03
2023-03-21T03:02:34.855Z,100102.61
2023-03-21T03:05:21.223Z,100106.98
2023-03-21T03:08:04.979Z,100108.24
2023-03-21T03:10:33.163Z,100110.39
2023-03-21T03:13:09.734Z,100113.59
2023-03-21T03:15:51.907Z,100113.67
2023-03-21T03:19:00.830Z,100118.09
2023-03-21T03:21:47.358Z,100115.63
2023-03-21T03:24:23.042Z,100119.23
2023-03-21T03:26:59.674Z,100115.77
2023-03-21T03:29:31.047Z,100118.52
2023-03-21T03:32:12.347Z,100119.95
2023-03-21T03:34:45.905Z,100118.77
2023-03-21T03:37:19.502Z,100117.39
2023-03-21T03:39:58.285Z,100119.80
2023-03-21T03:42:52.338Z,100120.30
2023-03-21T03:45:37.890Z,100120.02
2023-03-21T03:48:37.780Z,100121.40
2023-03-21T03:51:23.699Z,100121.23
2023-03-21T03:54:39.890Z,100121.11
2023-03-21T03:57:12.791Z,100124.06
2023-03-21T03:59:45.396Z,100124.61
2023-03-21T04:02:52.438Z,100126.56
2023-03-21T04:05:24.653Z,100124.95
2023-03-21T04:07:54.848Z,100123.73
2023-03-21T04:10:29.255Z,100125.64
2023-03-21T04:12:57.456Z,100126.98
2023-03-21T04:15:37.782Z,100129.05
2023-03-21T04:18:12.934Z,100126.62
2023-03-21T04:20:41.316Z,100126.80
2023-03-21T04:23:09.678Z,100124.80
2023-03-21T04:25:44.601Z,100125.14
2023-03-21T04:28:19.133Z,100124.72
2023-03-21T04:31:05.293Z,100122.98
2023-03-21T04:33:45.178Z,100127.48
2023-03-21T04:36:25.078Z,100125.98
2023-03-21T04:38:55.139Z,100126.52
2023-03-21T04:41:23.140Z,100123.60
2023-03-21T04:43:52.714Z,100127.38
2023-03-21T04:46:21.092Z,100122.89
2023-03-21T04:48:51.016Z,100123.27
2023-03-21T04:51:19.078Z,100123.58
2023-03-21T04:53:49.635Z,100124.77
2023-03-21T04:56:18.042Z,100125.96
2023-03-21T04:58:46.260Z,100131.81
2023-03-21T05:01:20.234Z,100134.19
2023-03-21T05:03:49.160Z,100136.85
2023-03-21T05:06:17.648Z,100132.62
2023-03-21T05:08:45.819Z,100136.38
2023-03-21T05:11:13.986Z,100135.02
2023-03-21T05:13:42.087Z,100134.66
2023-03-21T05:16:10.773Z,100136.50
2023-03-21T05:18:39.129Z,100136.25
2023-03-21T05:21:18.352Z,100136.91
2023-03-21T05:23:54.675Z,100140.85
2023-03-21T05:26:26.172Z,100141.52
2023-03-21T05:29:10.382Z,100148.36
2023-03-21T05:31:38.830Z,100147.45
2023-03-21T05:34:10.364Z,100149.31
2023-03-21T05:36:39.043Z,100149.11
2023-03-21T05:39:09.461Z,100151.50
2023-03-21T05:41:41.253Z,100152.11
2023-03-21T05:44:10.078Z,100153.95
2023-03-21T05:46:39.102Z,100154.77
2023-03-21T05:49:07.480Z,100157.55
2023-03-21T05:51:36.272Z,100160.33
2023-03-21T05:54:04.577Z,100160.13
2023-03-21T05:56:33.505Z,100160.38
2023-03-21T05:59:05.503Z,100164.13
2023-03-21T06:01:37.301Z,100170.63
2023-03-21T06:04:08.918Z,100172.56
2023-03-21T06:06:39.110Z,100170.37
2023-03-21T06:09:08.229Z,100172.46
2023-03-21T06:11:38.330Z,100174.98
2023-03-21T06:14:17.070Z,100176.05
2023-03-21T06:16:46.239Z,100182.00
2023-03-21T06:19:14.721Z,100179.07
2023-03-21T06:21:56.462Z,100181.42
2023-03-21T06:24:24.736Z,100185.96
2023-03-21T06:26:53.297Z,100186.18
2023-03-21T06:29:21.887Z,100187.20
2023-03-21T06:31:50.508Z,100184.65
2023-03-21T06:34:18.963Z,100187.68
2023-03-21T06:36:47.225Z,100186.56
2023-03-21T06:39:16.317Z,100188.94
2023-03-21T06:41:45.001Z,100190.89
2023-03-21T06:44:13.279Z,100188.66
2023-03-21T06:46:47.974Z,100194.75
2023-03-21T06:49:19.055Z,100193.65
2023-03-21T06:51:47.319Z,100199.64
2023-03-21T06:54:20.118Z,100201.10
2023-03-21T06:56:54.519Z,100201.47
2023-03-21T06:59:26.994Z,100205.50
2023-03-21T07:01:59.510Z,100205.59
2023-03-21T07:04:27.852Z,100205.27
2023-03-21T07:06:56.641Z,100205.90
2023-03-21T07:09:28.245Z,100208.98
2023-03-21T07:11:58.949Z,100211.83
2023-03-21T07:14:34.692Z,100213.92
2023-03-21T07:17:02.844Z,100211.41
2023-03-21T07:19:31.057Z,100215.16
2023-03-21T07:22:01.657Z,100214.37
2023-03-21T07:24:29.823Z,100213.92
2023-03-21T07:26:57.824Z,100213.78
2023-03-21T07:29:26.693Z,100215.34
2023-03-21T07:31:54.855Z,100217.34
2023-03-21T07:34:23.754Z,100218.05
2023-03-21T07:36:51.824Z,100217.71
2023-03-21T07:39:20.915Z,100220.94
2023-03-21T07:41:48.893Z,100222.63
2023-03-21T07:44:26.379Z,100218.98
2023-03-21T07:47:03.045Z,100222.27
2023-03-21T07:49:31.420Z,100218.88
2023-03-21T07:52:00.234Z,100219.52
2023-03-21T07:54:29.105Z,100217.15
2023-03-21T07:56:57.588Z,100217.43
2023-03-21T07:59:25.579Z,100219.06
2023-03-21T08:01:53.958Z,100221.82
2023-03-21T08:04:22.831Z,100224.89
2023-03-21T08:06:51.369Z,100221.33
2023-03-21T08:09:19.885Z,100225.27
2023-03-21T08:11:47.855Z,100227.22
2023-03-21T08:14:16.057Z,100230.30
2023-03-21T08:16:44.044Z,100232.00
2023-03-21T08:19:12.380Z,100230.78
2023-03-21T08:21:40.569Z,100227.70
2023-03-21T08:24:08.717Z,100230.88
2023-03-21T08:26:36.879Z,100229.00
2023-03-21T08:29:05.192Z,100227.86
2023-03-21T08:31:33.281Z,100228.96
2023-03-21T08:34:01.862Z,100228.75
2023-03-21T08:36:30.758Z,100231.50
2023-03-21T08:39:05.532Z,100235.91
2023-03-21T08:41:36.188Z,100236.56
2023-03-21T08:44:06.870Z,100237.02
2023-03-21T08:46:34.868Z,100236.04
2023-03-21T08:49:03.532Z,100236.80
2023-03-21T08:51:31.992Z,100242.44
2023-03-21T08:54:00.031Z,100244.39
2023-03-21T08:56:27.981Z,100243.77
2023-03-21T08:58:56.916Z,100246.96
2023-03-21T09:01:24.985Z,100246.96
2023-03-21T09:03:53.039Z,100250.95
2023-03-21T09:06:21.941Z,100252.25
2023-03-21T09:08:52.953Z,100253.48
2023-03-21T09:11:21.022Z,100251.15
2023-03-21T09:13:49.017Z,100254.73
2023-03-21T09:16:17.228Z,100253.50
2023-03-21T09:18:45.747Z,100258.45
2023-03-21T09:21:16.276Z,100258.63
2023-03-21T09:23:45.044Z,100261.83
2023-03-21T09:26:13.917Z,100268.21
2023-03-21T09:28:43.140Z,100266.56
2023-03-21T09:31:12.518Z,100269.02
2023-03-21T09:33:41.560Z,100271.74
2023-03-21T09:36:14.576Z,100270.64
2023-03-21T09:38:45.780Z,100275.01
2023-03-21T09:41:54.292Z,100278.02
2023-03-21T09:44:53.798Z,100272.77
2023-03-21T09:47:29.393Z,100274.30
2023-03-21T09:50:14.098Z,100274.64
2023-03-21T09:52:48.175Z,100274.45
2023-03-21T09:55:20.201Z,100275.37
2023-03-21T09:57:57.656Z,100275.90
2023-03-21T10:00:31.228Z,100276.70
2023-03-21T10:03:07.032Z,100275.52
2023-03-21T10:05:40.667Z,100273.94
2023-03-21T10:08:16.709Z,100273.31
2023-03-21T10:10:49.722Z,100271.60
2023-03-21T10:13:22.819Z,100271.31
2023-03-21T10:15:50.933Z,100268.86
2023-03-21T10:18:24.937Z,100272.68
2023-03-21T10:20:53.420Z,100269.41
2023-03-21T10:23:27.983Z,100271.65
2023-03-21T10:25:59.648Z,100274.78
2023-03-21T10:28:42.398Z,100270.27
2023-03-21T10:31:22.268Z,100271.92
2023-03-21T10:33:51.871Z,100275.55
2023-03-21T10:36:25.849Z,100274.34
2023-03-21T10:39:24.920Z,100275.63
2023-03-21T10:41:53.497Z,100273.66
2023-03-21T10:44:22.055Z,100275.42
2023-03-21T10:46:58.447Z,100274.84
2023-03-21T10:49:31.425Z,100277.39
2023-03-21T10:52:07.902Z,100282.10
2023-03-21T10:54:36.238Z,100286.14
2023-03-21T10:57:18.541Z,100293.45
2023-03-21T10:59:58.109Z,100294.33
2023-03-21T11:02:31.628Z,100293.59
2023-03-21T11:05:06.468Z,100301.46
2023-03-21T11:07:37.836Z,100299.69
2023-03-21T11:10:19.946Z,100304.81
2023-03-21T11:12:57.861Z,100299.33
2023-03-21T11:15:41.858Z,100299.98
2023-03-21T11:18:24.663Z,100302.82
2023-03-21T11:20:59.421Z,100300.02
2023-03-21T11:23:31.757Z,100300.36
2023-03-21T11:26:02.001Z,100297.77
2023-03-21T11:28:38.070Z,100297.30
2023-03-21T11:31:09.577Z,100292.38
2023-03-21T11:33:55.442Z,100292.82
2023-03-21T11:36:23.442Z,100289.21
2023-03-21T11:38:54.290Z,100288.77
2023-03-21T11:41:24.854Z,100285.04
2023-03-21T11:43:54.378Z,100283.84
2023-03-21T11:46:28.165Z,100279.85
2023-03-21T11:48:58.271Z,100277.08
2023-03-21T11:51:46.864Z,100276.59
2023-03-21T11:54:27.602Z,100275.92
2023-03-21T11:57:15.489Z,100271.89
2023-03-21T11:59:56.865Z,100275.02
2023-03-21T12:02:34.909Z,100272.63
2023-03-21T12:05:20.209Z,100273.20
2023-03-21T12:07:48.149Z,100275.26
2023-03-21T12:10:47.816Z,100272.75
2023-03-21T12:13:31.732Z,100271.48
2023-03-21T12:16:06.612Z,100270.68
2023-03-21T12:18:37.575Z,100267.81
2023-03-21T12:21:13.720Z,100267.45
2023-03-21T12:23:53.689Z,100268.58
2023-03-21T12:26:27.847Z,100259.84
2023-03-21T12:28:58.710Z,100256.38
2023-03-21T12:31:54.131Z,100258.80
2023-03-21T12:34:53.672Z,100255.66
2023-03-21T12:37:43.455Z,100255.14
2023-03-21T12:40:14.946Z,100256.41
2023-03-21T12:43:23.700Z,100252.86
2023-03-21T12:45:56.419Z,100250.95
2023-03-21T12:48:33.771Z,100252.16
2023-03-21T12:51:05.200Z,100256.31
2023-03-21T12:54:03.379Z,100258.32
2023-03-21T12:56:37.282Z,100258.63
2023-03-21T12:59:20.910Z,100258.83
2023-03-21T13:01:53.560Z,100257.20
2023-03-21T13:04:39.938Z,100252.65
2023-03-21T13:07:12.853Z,100254.48
2023-03-21T13:09:42.237Z,100252.27
2023-03-21T13:12:36.903Z,100251.59
2023-03-21T13:15:24.142Z,100248.46
2023-03-21T13:18:02.128Z,100250.02
2023-03-21T13:20:46.389Z,100248.11
2023-03-21T13:23:14.346Z,100247.10
2023-03-21T13:25:48.643Z,100243.10
2023-03-21T13:28:39.153Z,100241.02
2023-03-21T13:31:50.982Z,100243.38
2023-03-21T13:34:24.301Z,100240.95
2023-03-21T13:36:53.154Z,100238.15
2023-03-21T13:39:26.696Z,100246.91
2023-03-21T13:41:56.044Z,100241.33
2023-03-21T13:44:24.156Z,100246.48
2023-03-21T13:47:05.010Z,100255.23
2023-03-21T13:49:37.598Z,100255.39
2023-03-21T13:52:27.759Z,100264.50
2023-03-21T13:54:57.099Z,100259.65
2023-03-21T13:57:29.528Z,100262.94
2023-03-21T14:00:30.487Z,100263.17
2023-03-21T14:03:08.724Z,100263.91
2023-03-21T14:05:37.909Z,100262.40
2023-03-21T14:08:15.671Z,100264.94
2023-03-21T14:10:49.294Z,100262.45
2023-03-21T14:13:20.971Z,100258.04
2023-03-21T14:15:56.332Z,100259.03
2023-03-21T14:18:35.015Z,100254.95
2023-03-21T14:21:05.162Z,100253.79
2023-03-21T14:23:39.075Z,100254.09
2023-03-21T14:26:07.240Z,100252.28
2023-03-21T14:28:36.766Z,100249.58
2023-03-21T14:31:04.962Z,100249.23
2023-03-21T14:33:37.775Z,100246.27
2023-03-21T14:36:19.239Z,100239.20
2023-03-21T14:39:12.285Z,100239.33
2023-03-21T14:41:46.610Z,100240.81
2023-03-21T14:44:28.258Z,100240.63
2023-03-21T14:47:09.030Z,100240.44
2023-03-21T14:49:38.568Z,100238.15
2023-03-21T14:52:29.989Z,100239.27
2023-03-21T14:55:00.774Z,100235.56
2023-03-21T14:57:32.543Z,100234.98
2023-03-21T15:00:10.202Z,100235.85
2023-03-21T15:02:41.880Z,100237.62
2023-03-21T15:05:17.201Z,100237.40
2023-03-21T15:07:57.509Z,100236.77
2023-03-21T15:10:27.395Z,100235.11
2023-03-21T15:13:01.706Z,100233.20
2023-03-21T15:15:31.938Z,100232.16
2023-03-21T15:18:04.821Z,100232.41
2023-03-21T15:20:36.693Z,100232.39
2023-03-21T15:23:10.965Z,100225.83
2023-03-21T15:25:39.651Z,100228.52
2023-03-21T15:28:08.109Z,100225.80
2023-03-21T15:30:36.186Z,100224.80
2023-03-21T15:33:10.528Z,100225.18
2023-03-21T15:35:42.431Z,100225.97
2023-03-21T15:38:22.252Z,100226.01
2023-03-21T15:40:50.325Z,100225.08
2023-03-21T15:43:20.178Z,100227.94
2023-03-21T15:45:51.009Z,100224.46
2023-03-21T15:48:28.016Z,100225.48
2023-03-21T15:50:56.146Z,100225.24
2023-03-21T15:53:24.912Z,100225.63
2023-03-21T15:56:06.075Z,100225.82
2023-03-21T15:58:37.079Z,100226.98
2023-03-21T16:01:11.314Z,100227.63
2023-03-21T16:03:45.971Z,100224.81
2023-03-21T16:06:18.646Z,100223.78
2023-03-21T16:08:51.295Z,100223.19
2023-03-21T16:11:36.902Z,100229.52
2023-03-21T16:14:06.390Z,100227.95
2023-03-21T16:16:35.173Z,100229.72
2023-03-21T16:19:03.631Z,100226.70
2023-03-21T16:21:32.016Z,100228.25
2023-03-21T16:24:00.933Z,100227.61
2023-03-21T16:26:36.002Z,100228.30
2023-03-21T16:29:05.035Z,100226.96
2023-03-21T16:31:34.846Z,100229.05
2023-03-21T16:34:04.659Z,100228.31
2023-03-21T16:36:36.779Z,100225.77
2023-03-21T16:39:26.382Z,100229.34
2023-03-21T16:41:54.362Z,100230.67
2023-03-21T16:44:22.838Z,100232.32
2023-03-21T16:46:51.222Z,100232.03
2023-03-21T16:49:23.902Z,100234.83
2023-03-21T16:51:53.898Z,100239.40
2023-03-21T16:54:22.511Z,100236.35
2023-03-21T16:56:54.070Z,100239.65
2023-03-21T16:59:23.125Z,100240.93
2023-03-21T17:01:51.456Z,100241.52
2023-03-21T17:04:19.680Z,100242.29
2023-03-21T17:06:53.772Z,100245.95
2023-03-21T17:09:26.363Z,100248.88
2023-03-21T17:11:55.349Z,100247.20
2023-03-21T17:14:23.868Z,100253.54
2023-03-21T17:16:52.738Z,100254.20
2023-03-21T17:19:27.727Z,100254.89
2023-03-21T17:21:56.228Z,100261.24
2023-03-21T17:24:26.446Z,100261.56
2023-03-21T17:26:54.842Z,100264.15
2023-03-21T17:29:22.968Z,100267.58
2023-03-21T17:31:51.113Z,100272.85
2023-03-21T17:34:19.504Z,100274.86
2023-03-21T17:36:49.248Z,100277.71
2023-03-21T17:39:25.284Z,100278.86
2023-03-21T17:41:54.925Z,100277.09
2023-03-21T17:44:23.114Z,100278.11
2023-03-21T17:46:52.228Z,100281.83
2023-03-21T17:49:21.295Z,100289.11
2023-03-21T17:51:50.680Z,100287.80
2023-03-21T17:54:19.506Z,100290.97
2023-03-21T17:56:48.571Z,100292.58
2023-03-21T17:59:17.241Z,100293.72
2023-03-21T18:10:58.609Z,100311.75
2023-03-21T18:13:28.400Z,100309.77
2023-03-21T18:15:59.922Z,100308.48
2023-03-21T18:18:31.423Z,100308.55
2023-03-21T18:21:02.759Z,100311.17
2023-03-21T18:23:33.417Z,100308.11
2023-03-21T18:26:04.273Z,100314.37
2023-03-21T18:28:41.312Z,100319.26
2023-03-21T18:31:19.800Z,100313.50
2023-03-21T18:33:52.594Z,100312.34
2023-03-21T18:36:28.252Z,100316.17
2023-03-21T18:39:02.418Z,100313.63
2023-03-21T18:41:34.453Z,100316.26
2023-03-21T18:44:16.042Z,100322.82
2023-03-21T18:46:52.624Z,100325.62
2023-03-21T18:52:14.468Z,100332.23
2023-03-21T18:54:46.453Z,100332.80
2023-03-21T19:00:13.798Z,100338.22
2023-03-21T19:02:50.325Z,100339.81
2023-03-21T19:05:23.531Z,100336.59
2023-03-21T19:07:54.549Z,100334.27
2023-03-21T19:10:26.489Z,100335.84
2023-03-21T19:20:29.807Z,100322.80
2023-03-21T19:22:57.968Z,100323.00
2023-03-21T19:25:26.856Z,100325.43
2023-03-21T19:27:55.022Z,100324.78
2023-03-21T19:30:23.093Z,100327.20
2023-03-21T19:32:52.023Z,100328.08
2023-03-21T19:35:20.336Z,100330.00
2023-03-21T19:37:48.666Z,100333.98
2023-03-21T19:40:17.160Z,100332.13
2023-03-21T19:42:45.917Z,100334.02
2023-03-21T19:45:14.121Z,100329.60
2023-03-21T19:47:42.242Z,100333.73
2023-03-21T19:52:59.692Z,100335.83
2023-03-21T19:55:27.987Z,100336.52
2023-03-21T19:57:56.343Z,100337.73
2023-03-21T20:00:24.585Z,100343.22
2023-03-21T20:02:52.654Z,100343.23
2023-03-21T20:05:22.268Z,100343.59
2023-03-21T20:07:50.420Z,100346.17
2023-03-21T20:10:18.753Z,100344.80
2023-03-21T20:12:47.301Z,100344.30
2023-03-21T20:15:19.601Z,100345.48
2023-03-21T20:17:50.506Z,100349.94
2023-03-21T20:30:07.538Z,100359.71
2023-03-21T20:36:54.140Z,100366.89
2023-03-21T20:39:22.520Z,100365.52
2023-03-21T20:41:50.572Z,100367.05
2023-03-21T20:47:07.287Z,100359.18
2023-03-21T20:49:35.305Z,100356.29
2023-03-21T20:54:57.512Z,100357.51
2023-03-21T20:57:30.329Z,100358.04
2023-03-21T20:59:58.272Z,100359.41
2023-03-21T21:02:26.625Z,100357.70
2023-03-21T21:05:24.095Z,100357.20
2023-03-21T21:07:44.063Z,100357.89
2023-03-21T21:10:14.811Z,100356.17
2023-03-21T21:12:45.387Z,100351.05
2023-03-21T21:15:16.737Z,100345.60
2023-03-21T21:20:33.793Z,100347.30
2023-03-21T21:23:01.944Z,100342.50
2023-03-21T21:25:33.545Z,100346.44
2023-03-21T21:28:02.041Z,100341.81
2023-03-21T21:30:31.737Z,100341.83
2023-03-21T21:33:00.919Z,100339.27
2023-03-21T21:35:29.097Z,100339.77
2023-03-21T21:37:57.075Z,100342.49
2023-03-21T21:40:25.694Z,100340.77
2023-03-21T21:42:53.868Z,100341.13
2023-03-21T21:45:21.986Z,100341.47
2023-03-21T21:47:50.018Z,100339.93
2023-03-21T21:50:18.915Z,100337.71
2023-03-21T21:52:54.376Z,100336.85
2023-03-21T21:55:22.707Z,100337.35
2023-03-21T21:57:50.760Z,100336.84
2023-03-21T22:00:20.245Z,100337.52
2023-03-21T22:02:48.384Z,100337.00
2023-03-21T22:05:16.608Z,100341.09
2023-03-21T22:07:46.638Z,100340.06
2023-03-21T22:10:15.512Z,100336.81
2023-03-21T22:12:43.381Z,100340.73
2023-03-21T22:15:12.227Z,100340.05
2023-03-21T22:17:41.164Z,100343.11
2023-03-21T22:20:10.112Z,100345.84
2023-03-21T22:22:38.502Z,100344.80
2023-03-21T22:25:09.161Z,100344.79
2023-03-21T22:27:37.294Z,100348.36
2023-03-21T22:30:07.713Z,100346.80
2023-03-21T22:32:38.206Z,100349.19
2023-03-21T22:35:09.049Z,100349.35
2023-03-21T22:37:39.870Z,100348.83
2023-03-21T22:40:10.471Z,100349.50
2023-03-21T22:42:39.730Z,100351.19
2023-03-21T22:45:10.019Z,100348.80
2023-03-21T22:47:38.495Z,100350.14
2023-03-21T22:50:07.611Z,100343.47
2023-03-21T22:52:35.722Z,100345.67
2023-03-21T22:55:03.816Z,100341.41
2023-03-21T22:57:31.688Z,100340.91
2023-03-21T22:59:59.563Z,100335.79
2023-03-21T23:02:27.907Z,100335.63
2023-03-21T23:04:55.955Z,100328.27
2023-03-21T23:07:23.938Z,100332.55
2023-03-21T23:09:51.980Z,100332.39
2023-03-21T23:12:19.885Z,100337.48
2023-03-21T23:14:47.779Z,100335.63
2023-03-21T23:17:16.446Z,100335.77
2023-03-21T23:19:44.445Z,100336.13
2023-03-21T23:22:12.536Z,100332.70
2023-03-21T23:24:40.507Z,100335.77
2023-03-21T23:27:08.419Z,100334.41
2023-03-21T23:29:36.343Z,100337.28
2023-03-21T23:32:04.785Z,100333.88
2023-03-21T23:34:32.641Z,100328.57
2023-03-21T23:37:00.755Z,100323.96
2023-03-21T23:39:28.651Z,100322.92
2023-03-21T23:41:58.692Z,100322.73
2023-03-21T23:44:27.496Z,100319.13
2023-03-21T23:46:55.792Z,100319.11
2023-03-21T23:49:23.880Z,100313.99
2023-03-21T23:51:51.836Z,100314.13
2023-03-21T23:54:19.927Z,100316.50
2023-03-21T23:56:47.813Z,100314.63
2023-03-21T23:59:15.855Z,100312.55
